Ikar B763 at Simferopol on Jun 17th 2021, runway excursion on landing

Last Update: June 17, 2021 / 09:10:21 GMT/Zulu time

Bookmark this article
Incident Facts

Date of incident
Jun 17, 2021

Classification
Incident

Flight number
IK-123

Aircraft Registration
VP-BMC

Aircraft Type
Boeing 767-300

ICAO Type Designator
B763

Airport ICAO Code
UKFF

An Ikar Boeing 767-300, registration VP-BMC performing flight IK-123 from Moscow Sheremetyevo (Russia) to Simferopol (Ukraine), landed on Simferopol's runway 19 at 10:20L (07:20Z) but veered right off the runway coming to a stop about 2310 meters/7580 feet down the runway with nose and right hand main gear off the paved surface of the runway, the left main gear remained on the pavement. There were no injuries.

Rosaviatsia reported the runway was wet (3mm water on the runway), friction factor 0.54. The circumstances of the runway excursion are being investigated.

The status of Crimea and Simferopol is disputed. According to international law and United Nations the Crimea belong to the Ukraine although Russia annexed Crimea in 2014.

Metars:
UKFF 170830Z 25010MPS 5000 -SHRA BR BKN003 OVC021CB 18/18 Q1010 R19/290395 TEMPO VRB14MPS 1100 TSRA BR BKN002 BKN020CB RMK OBST OBSC=
UKFF 170800Z 26010MPS 7000 -SHRA BKN003 OVC028CB 18/18 Q1009 R19/290395 TEMPO VRB14MPS 1100 TSRA BR BKN002 BKN020CB RMK OBST OBSC=
UKFF 170730Z 26009MPS 9000 -SHRA SCT002 BKN024CB 18/18 Q1009 R19/290395 TEMPO VRB14MPS 1100 TSRA BR BKN002 BKN020CB RMK OBST OBSC=
UKFF 170700Z 26007MPS 9999 SCT004 BKN027CB 18/18 Q1009 R19/290395 TEMPO VRB14MPS 1100 TSRA BR BKN002 BKN020CB RMK OBST OBSC=
UKFF 170630Z 27007MPS 9999 SCT004 BKN027CB 18/18 Q1009 R19/290395 TEMPO VRB14MPS 1100 TSRA BR BKN002 BKN020CB RMK OBST OBSC=
UKFF 170600Z 28006MPS 9999 SCT004 BKN025CB 18/18 Q1010 R19/290395 TEMPO VRB14MPS 1100 TSRA BR BKN002 BKN020CB RMK OBST OBSC=
UKFF 170530Z 30006MPS 6000 -RA BKN003 OVC021 17/17 Q1010 R19/290395 TEMPO VRB14MPS -TSRA BKN020CB RMK OBST OBSC=
UKFF 170500Z 28005MPS 8000 -RA BKN003 OVC018 17/17 Q1009 R19/290395 TEMPO VRB14MPS -TSRA BKN020CB RMK OBST OBSC=
UKFF 170430Z 28005MPS 9999 BKN002 17/17 Q1010 R19/290295 TEMPO VRB18MPS -TSRA BKN020CB RMK OBST OBSC=
UKFF 170400Z 26005MPS 8000 -RA BKN002 17/17 Q1010 R19/290295 TEMPO VRB18MPS 0700 +TSRA BKN003 BKN020CB RMK QBB060 OBST OBSC=
Incident Facts

Date of incident
Jun 17, 2021

Classification
Incident

Flight number
IK-123

Aircraft Registration
VP-BMC

Aircraft Type
Boeing 767-300

ICAO Type Designator
B763

Airport ICAO Code
UKFF

This article is published under license from Avherald.com. © of text by Avherald.com.
Article source

You can read 4 more free articles without a subscription.

Subscribe now and continue reading without any limits!

Are you a subscriber?
Login
Subscribe

Read unlimited articles and receive our daily update briefing. Gain better insights into what is happening in commercial aviation safety.

Free newsletter

Want to know more and stay ahead? Get our free weekly newsletter and join 5233 existing subscribers.

By subscribing, you accept our terms and conditions and confirm that you've read our privacy policy.

Send tip

Support AeroInside by sending a small tip amount.

Related articles

Newest articles

Subscribe today

Are you researching aviation incidents? Get access to AeroInside Insights, unlimited read access and receive the daily newsletter.

Pick your plan and subscribe

Partner

Blockaviation logo

A new way to document and demonstrate airworthiness compliance and aircraft value. Find out more.

Virtual Speech logo

ELITE Simulation Solutions is a leading global provider of Flight Simulation Training Devices, IFR training software as well as flight controls and related services. Find out more.

Get updates

Never miss an article from AeroInside. Subscribe to our free weekly newsletter and join 5233 existing subscribers.

By subscribing, you accept our terms and conditions and that you've read our privacy policy.

AeroInside Blog
Popular aircraft
Airbus A320
Boeing 737-800
Boeing 737-800 MAX
Popular airlines
American Airlines
United
Delta
Air Canada
Lufthansa
British Airways